sensor_id;sensor_type;location;lat;lon;timestamp;pressure;altitude;pressure_sealevel;temperature;humidity
47785;BME280;35233;55.686;37.848;2023-07-13T00:00:19;98862.22;;;19.07;54.70
47785;BME280;35233;55.686;37.848;2023-07-13T00:02:44;98863.91;;;19.08;54.66
47785;BME280;35233;55.686;37.848;2023-07-13T00:05:10;98858.91;;;19.03;55.04
47785;BME280;35233;55.686;37.848;2023-07-13T00:07:36;98861.59;;;19.03;54.90
47785;BME280;35233;55.686;37.848;2023-07-13T00:10:03;98854.53;;;19.02;54.72
47785;BME280;35233;55.686;37.848;2023-07-13T00:12:33;98856.59;;;18.98;54.90
47785;BME280;35233;55.686;37.848;2023-07-13T00:15:02;98851.13;;;19.00;54.71
47785;BME280;35233;55.686;37.848;2023-07-13T00:17:29;98865.22;;;19.02;54.84
47785;BME280;35233;55.686;37.848;2023-07-13T00:19:55;98865.22;;;19.02;54.91
47785;BME280;35233;55.686;37.848;2023-07-13T00:22:22;98860.00;;;19.00;55.16
47785;BME280;35233;55.686;37.848;2023-07-13T00:24:52;98854.13;;;18.95;54.86
47785;BME280;35233;55.686;37.848;2023-07-13T00:27:18;98861.00;;;18.99;54.87
47785;BME280;35233;55.686;37.848;2023-07-13T00:29:43;98849.34;;;18.88;55.15
47785;BME280;35233;55.686;37.848;2023-07-13T00:32:10;98859.50;;;18.95;54.75
47785;BME280;35233;55.686;37.848;2023-07-13T00:34:37;98864.50;;;19.00;54.87
47785;BME280;35233;55.686;37.848;2023-07-13T00:37:03;98854.13;;;18.95;54.94
47785;BME280;35233;55.686;37.848;2023-07-13T00:39:32;98858.66;;;18.95;54.72
47785;BME280;35233;55.686;37.848;2023-07-13T00:41:57;98855.84;;;18.96;54.89
47785;BME280;35233;55.686;37.848;2023-07-13T00:44:23;98865.59;;;18.97;54.71
47785;BME280;35233;55.686;37.848;2023-07-13T00:46:49;98850.72;;;18.93;54.76
47785;BME280;35233;55.686;37.848;2023-07-13T00:49:18;98861.19;;;18.96;55.03
47785;BME280;35233;55.686;37.848;2023-07-13T00:52:04;98857.19;;;18.91;54.96
47785;BME280;35233;55.686;37.848;2023-07-13T00:54:39;98866.78;;;18.93;55.12
47785;BME280;35233;55.686;37.848;2023-07-13T00:57:09;98867.53;;;18.95;55.15
47785;BME280;35233;55.686;37.848;2023-07-13T00:59:40;98865.06;;;18.92;54.79
47785;BME280;35233;55.686;37.848;2023-07-13T01:02:07;98856.06;;;18.93;54.88
47785;BME280;35233;55.686;37.848;2023-07-13T01:04:33;98858.03;;;18.91;54.96
47785;BME280;35233;55.686;37.848;2023-07-13T01:06:58;98857.06;;;18.92;54.82
47785;BME280;35233;55.686;37.848;2023-07-13T01:09:26;98857.91;;;18.93;54.95
47785;BME280;35233;55.686;37.848;2023-07-13T01:11:51;98852.69;;;18.91;55.22
47785;BME280;35233;55.686;37.848;2023-07-13T01:14:17;98852.03;;;18.88;54.99
47785;BME280;35233;55.686;37.848;2023-07-13T01:16:45;98838.66;;;18.88;54.73
47785;BME280;35233;55.686;37.848;2023-07-13T01:19:38;98850.94;;;18.90;55.11
47785;BME280;35233;55.686;37.848;2023-07-13T01:22:10;98854.59;;;18.89;55.29
47785;BME280;35233;55.686;37.848;2023-07-13T01:24:38;98852.69;;;18.91;54.95
47785;BME280;35233;55.686;37.848;2023-07-13T01:27:05;98843.06;;;18.89;54.94
47785;BME280;35233;55.686;37.848;2023-07-13T01:29:33;98843.16;;;18.87;54.95
47785;BME280;35233;55.686;37.848;2023-07-13T01:31:59;98845.72;;;18.89;55.05
47785;BME280;35233;55.686;37.848;2023-07-13T01:34:26;98837.94;;;18.86;54.83
47785;BME280;35233;55.686;37.848;2023-07-13T01:36:52;98844.00;;;18.88;54.98
47785;BME280;35233;55.686;37.848;2023-07-13T01:39:20;98845.72;;;18.89;54.94
47785;BME280;35233;55.686;37.848;2023-07-13T01:41:46;98835.03;;;18.89;55.23
47785;BME280;35233;55.686;37.848;2023-07-13T01:44:11;98844.13;;;18.86;55.01
47785;BME280;35233;55.686;37.848;2023-07-13T01:46:36;98835.34;;;18.84;55.23
47785;BME280;35233;55.686;37.848;2023-07-13T01:49:02;98838.78;;;18.86;55.14
47785;BME280;35233;55.686;37.848;2023-07-13T01:51:27;98846.69;;;18.88;55.18
47785;BME280;35233;55.686;37.848;2023-07-13T01:53:53;98835.13;;;18.87;54.79
47785;BME280;35233;55.686;37.848;2023-07-13T01:56:18;98841.31;;;18.88;55.14
47785;BME280;35233;55.686;37.848;2023-07-13T01:58:45;98834.19;;;18.88;55.17
47785;BME280;35233;55.686;37.848;2023-07-13T02:01:11;98821.97;;;18.84;55.07
47785;BME280;35233;55.686;37.848;2023-07-13T02:03:36;98828.94;;;18.87;55.06
47785;BME280;35233;55.686;37.848;2023-07-13T02:06:02;98837.69;;;18.89;54.89
47785;BME280;35233;55.686;37.848;2023-07-13T02:08:28;98843.91;;;18.89;54.87
47785;BME280;35233;55.686;37.848;2023-07-13T02:10:53;98821.88;;;18.86;54.83
47785;BME280;35233;55.686;37.848;2023-07-13T02:13:19;98835.78;;;18.91;55.07
47785;BME280;35233;55.686;37.848;2023-07-13T02:15:44;98827.00;;;18.89;54.78
47785;BME280;35233;55.686;37.848;2023-07-13T02:18:10;98825.41;;;18.86;54.92
47785;BME280;35233;55.686;37.848;2023-07-13T02:20:35;98818.34;;;18.85;55.11
47785;BME280;35233;55.686;37.848;2023-07-13T02:23:01;98835.78;;;18.91;55.10
47785;BME280;35233;55.686;37.848;2023-07-13T02:25:26;98838.31;;;18.92;54.78
47785;BME280;35233;55.686;37.848;2023-07-13T02:27:52;98823.47;;;18.88;54.72
47785;BME280;35233;55.686;37.848;2023-07-13T02:30:18;98819.81;;;18.89;54.97
47785;BME280;35233;55.686;37.848;2023-07-13T02:32:44;98830.28;;;18.92;55.00
47785;BME280;35233;55.686;37.848;2023-07-13T02:35:09;98809.22;;;18.88;54.78
47785;BME280;35233;55.686;37.848;2023-07-13T02:37:35;98812.53;;;18.91;54.90
47785;BME280;35233;55.686;37.848;2023-07-13T02:40:01;98813.16;;;18.95;54.72
47785;BME280;35233;55.686;37.848;2023-07-13T02:42:29;98810.56;;;18.93;54.98
47785;BME280;35233;55.686;37.848;2023-07-13T02:44:54;98808.63;;;18.95;54.57
47785;BME280;35233;55.686;37.848;2023-07-13T02:47:20;98819.25;;;18.97;54.64
47785;BME280;35233;55.686;37.848;2023-07-13T02:49:45;98820.94;;;18.98;54.58
47785;BME280;35233;55.686;37.848;2023-07-13T02:52:11;98813.66;;;19.00;54.75
47785;BME280;35233;55.686;37.848;2023-07-13T02:54:36;98823.50;;;18.99;54.74
47785;BME280;35233;55.686;37.848;2023-07-13T02:57:02;98818.25;;;18.98;54.79
47785;BME280;35233;55.686;37.848;2023-07-13T02:59:27;98807.44;;;18.99;54.39
47785;BME280;35233;55.686;37.848;2023-07-13T03:01:53;98800.38;;;18.98;54.53
47785;BME280;35233;55.686;37.848;2023-07-13T03:04:18;98811.47;;;19.05;54.54
47785;BME280;35233;55.686;37.848;2023-07-13T03:06:45;98802.47;;;19.06;54.52
47785;BME280;35233;55.686;37.848;2023-07-13T03:09:10;98800.75;;;19.05;54.46
47785;BME280;35233;55.686;37.848;2023-07-13T03:11:38;98799.66;;;19.08;54.61
47785;BME280;35233;55.686;37.848;2023-07-13T03:14:03;98804.78;;;19.11;54.47
47785;BME280;35233;55.686;37.848;2023-07-13T03:16:29;98811.84;;;19.12;54.22
47785;BME280;35233;55.686;37.848;2023-07-13T03:18:54;98805.66;;;19.11;54.21
47785;BME280;35233;55.686;37.848;2023-07-13T03:21:20;98813.56;;;19.13;54.23
47785;BME280;35233;55.686;37.848;2023-07-13T03:23:46;98803.31;;;19.07;54.39
47785;BME280;35233;55.686;37.848;2023-07-13T03:26:17;98810.13;;;19.11;54.09
47785;BME280;35233;55.686;37.848;2023-07-13T03:28:43;98808.56;;;19.08;54.56
47785;BME280;35233;55.686;37.848;2023-07-13T03:31:12;98802.00;;;19.12;54.25
47785;BME280;35233;55.686;37.848;2023-07-13T03:33:38;98812.47;;;19.15;54.33
47785;BME280;35233;55.686;37.848;2023-07-13T03:36:04;98808.09;;;19.14;54.01
47785;BME280;35233;55.686;37.848;2023-07-13T03:38:31;98803.22;;;19.08;54.14
47785;BME280;35233;55.686;37.848;2023-07-13T03:40:57;98811.72;;;19.13;54.14
47785;BME280;35233;55.686;37.848;2023-07-13T03:43:22;98817.59;;;19.18;54.04
47785;BME280;35233;55.686;37.848;2023-07-13T03:45:48;98824.53;;;19.21;54.23
47785;BME280;35233;55.686;37.848;2023-07-13T03:48:16;98819.28;;;19.19;53.98
47785;BME280;35233;55.686;37.848;2023-07-13T03:50:41;98817.34;;;19.21;54.04
47785;BME280;35233;55.686;37.848;2023-07-13T03:53:07;98826.97;;;19.24;54.01
47785;BME280;35233;55.686;37.848;2023-07-13T03:55:32;98821.47;;;19.26;53.64
47785;BME280;35233;55.686;37.848;2023-07-13T03:58:00;98819.53;;;19.28;54.02
47785;BME280;35233;55.686;37.848;2023-07-13T04:00:26;98823.06;;;19.28;53.89
47785;BME280;35233;55.686;37.848;2023-07-13T04:02:52;98821.38;;;19.27;53.64
47785;BME280;35233;55.686;37.848;2023-07-13T04:05:17;98820.16;;;19.31;53.92
47785;BME280;35233;55.686;37.848;2023-07-13T04:07:43;98821.13;;;19.30;53.46
47785;BME280;35233;55.686;37.848;2023-07-13T04:10:09;98819.91;;;19.34;53.78
47785;BME280;35233;55.686;37.848;2023-07-13T04:12:35;98810.94;;;19.35;53.78
47785;BME280;35233;55.686;37.848;2023-07-13T04:15:01;98820.31;;;19.41;53.74
47785;BME280;35233;55.686;37.848;2023-07-13T04:17:26;98830.03;;;19.42;53.45
47785;BME280;35233;55.686;37.848;2023-07-13T04:19:52;98815.31;;;19.36;53.67
47785;BME280;35233;55.686;37.848;2023-07-13T04:22:17;98821.78;;;19.45;53.42
47785;BME280;35233;55.686;37.848;2023-07-13T04:24:43;98814.59;;;19.45;53.46
47785;BME280;35233;55.686;37.848;2023-07-13T04:27:09;98819.84;;;19.47;53.59
47785;BME280;35233;55.686;37.848;2023-07-13T04:29:34;98818.25;;;19.44;53.21
47785;BME280;35233;55.686;37.848;2023-07-13T04:32:00;98825.28;;;19.45;53.36
47785;BME280;35233;55.686;37.848;2023-07-13T04:34:26;98825.78;;;19.51;53.25
47785;BME280;35233;55.686;37.848;2023-07-13T04:36:52;98822.88;;;19.54;53.21
47785;BME280;35233;55.686;37.848;2023-07-13T04:39:18;98828.00;;;19.57;53.44
47785;BME280;35233;55.686;37.848;2023-07-13T04:41:43;98826.78;;;19.61;53.35
47785;BME280;35233;55.686;37.848;2023-07-13T04:44:08;98824.13;;;19.61;53.46
47785;BME280;35233;55.686;37.848;2023-07-13T04:46:34;98816.31;;;19.58;53.02
47785;BME280;35233;55.686;37.848;2023-07-13T04:48:59;98829.47;;;19.61;53.10
47785;BME280;35233;55.686;37.848;2023-07-13T04:51:26;98819.84;;;19.58;53.04
47785;BME280;35233;55.686;37.848;2023-07-13T04:53:52;98817.28;;;19.57;53.33
47785;BME280;35233;55.686;37.848;2023-07-13T04:56:17;98817.03;;;19.60;53.07
47785;BME280;35233;55.686;37.848;2023-07-13T04:58:44;98815.34;;;19.59;52.99
47785;BME280;35233;55.686;37.848;2023-07-13T05:01:10;98820.44;;;19.62;53.04
47785;BME280;35233;55.686;37.848;2023-07-13T05:03:36;98802.53;;;19.51;53.38
47785;BME280;35233;55.686;37.848;2023-07-13T05:06:03;98815.09;;;19.62;52.98
47785;BME280;35233;55.686;37.848;2023-07-13T05:08:29;98820.75;;;19.70;53.01
47785;BME280;35233;55.686;37.848;2023-07-13T05:10:55;98825.09;;;19.71;53.06
47785;BME280;35233;55.686;37.848;2023-07-13T05:13:21;98823.53;;;19.68;52.75
47785;BME280;35233;55.686;37.848;2023-07-13T05:15:55;98832.41;;;19.80;52.99
47785;BME280;35233;55.686;37.848;2023-07-13T05:18:21;98822.78;;;19.89;52.57
47785;BME280;35233;55.686;37.848;2023-07-13T05:20:47;98810.38;;;19.99;52.30
47785;BME280;35233;55.686;37.848;2023-07-13T05:23:19;98826.78;;;20.17;52.31
47785;BME280;35233;55.686;37.848;2023-07-13T05:25:44;98810.09;;;20.25;51.60
47785;BME280;35233;55.686;37.848;2023-07-13T05:28:10;98814.09;;;20.30;51.75
47785;BME280;35233;55.686;37.848;2023-07-13T05:30:35;98817.25;;;20.35;51.92
47785;BME280;35233;55.686;37.848;2023-07-13T05:33:01;98822.34;;;20.39;51.39
47785;BME280;35233;55.686;37.848;2023-07-13T05:35:26;98807.59;;;20.44;51.14
47785;BME280;35233;55.686;37.848;2023-07-13T05:37:51;98808.19;;;20.59;50.87
47785;BME280;35233;55.686;37.848;2023-07-13T05:40:17;98819.97;;;20.68;50.48
47785;BME280;35233;55.686;37.848;2023-07-13T05:42:42;98814.75;;;20.66;50.97
47785;BME280;35233;55.686;37.848;2023-07-13T05:45:08;98821.34;;;20.62;50.71
47785;BME280;35233;55.686;37.848;2023-07-13T05:47:34;98818.19;;;20.57;51.07
47785;BME280;35233;55.686;37.848;2023-07-13T05:49:59;98812.09;;;20.55;51.10
47785;BME280;35233;55.686;37.848;2023-07-13T05:52:25;98813.50;;;20.70;50.68
47785;BME280;35233;55.686;37.848;2023-07-13T05:54:50;98809.78;;;20.83;50.27
47785;BME280;35233;55.686;37.848;2023-07-13T05:57:16;98815.38;;;20.91;50.50
47785;BME280;35233;55.686;37.848;2023-07-13T05:59:41;98810.00;;;20.91;50.15
47785;BME280;35233;55.686;37.848;2023-07-13T06:02:09;98803.94;;;20.89;50.07
47785;BME280;35233;55.686;37.848;2023-07-13T06:04:35;98805.63;;;20.90;49.97
47785;BME280;35233;55.686;37.848;2023-07-13T06:07:01;98801.25;;;20.89;50.14
47785;BME280;35233;55.686;37.848;2023-07-13T06:09:26;98819.03;;;20.90;50.12
47785;BME280;35233;55.686;37.848;2023-07-13T06:11:52;98814.66;;;20.89;50.13
47785;BME280;35233;55.686;37.848;2023-07-13T06:14:17;98818.06;;;20.91;50.15
47785;BME280;35233;55.686;37.848;2023-07-13T06:16:43;98813.16;;;20.96;50.50
47785;BME280;35233;55.686;37.848;2023-07-13T06:19:08;98813.75;;;20.99;50.28
47785;BME280;35233;55.686;37.848;2023-07-13T06:21:34;98818.59;;;21.06;49.66
47785;BME280;35233;55.686;37.848;2023-07-13T06:23:59;98808.09;;;21.02;50.13
47785;BME280;35233;55.686;37.848;2023-07-13T06:26:25;98804.56;;;21.02;50.19
47785;BME280;35233;55.686;37.848;2023-07-13T06:28:50;98796.25;;;21.05;50.33
47785;BME280;35233;55.686;37.848;2023-07-13T06:31:16;98797.44;;;21.12;50.19
47785;BME280;35233;55.686;37.848;2023-07-13T06:33:43;98796.19;;;21.16;49.66
47785;BME280;35233;55.686;37.848;2023-07-13T06:36:09;98794.09;;;21.20;49.54
47785;BME280;35233;55.686;37.848;2023-07-13T06:38:35;98780.81;;;21.18;49.43
47785;BME280;35233;55.686;37.848;2023-07-13T06:41:00;98775.38;;;21.30;49.82
47785;BME280;35233;55.686;37.848;2023-07-13T06:43:26;98767.72;;;21.35;49.62
47785;BME280;35233;55.686;37.848;2023-07-13T06:45:55;98782.38;;;21.42;49.35
47785;BME280;35233;55.686;37.848;2023-07-13T06:48:21;98778.44;;;21.46;48.94
47785;BME280;35233;55.686;37.848;2023-07-13T06:50:48;98782.31;;;21.53;49.38
47785;BME280;35233;55.686;37.848;2023-07-13T06:53:14;98776.97;;;21.63;48.56
47785;BME280;35233;55.686;37.848;2023-07-13T06:58:05;98777.88;;;21.73;48.67
47785;BME280;35233;55.686;37.848;2023-07-13T07:00:31;98773.59;;;21.70;48.41
47785;BME280;35233;55.686;37.848;2023-07-13T07:02:57;98782.44;;;21.82;48.41
47785;BME280;35233;55.686;37.848;2023-07-13T07:05:22;98779.56;;;21.74;48.72
47785;BME280;35233;55.686;37.848;2023-07-13T07:07:50;98790.09;;;21.56;48.79
47785;BME280;35233;55.686;37.848;2023-07-13T07:10:15;98797.81;;;21.29;49.47
47785;BME280;35233;55.686;37.848;2023-07-13T07:12:41;98795.72;;;21.11;50.13
47785;BME280;35233;55.686;37.848;2023-07-13T07:15:06;98806.78;;;20.97;50.57
47785;BME280;35233;55.686;37.848;2023-07-13T07:17:32;98798.19;;;20.82;50.80
47785;BME280;35233;55.686;37.848;2023-07-13T07:19:57;98804.94;;;20.76;50.96
47785;BME280;35233;55.686;37.848;2023-07-13T07:22:23;98798.59;;;20.77;50.64
47785;BME280;35233;55.686;37.848;2023-07-13T07:24:51;98791.66;;;20.75;50.61
47785;BME280;35233;55.686;37.848;2023-07-13T07:27:16;98800.19;;;20.80;51.06
47785;BME280;35233;55.686;37.848;2023-07-13T07:29:42;98798.34;;;20.80;50.62
47785;BME280;35233;55.686;37.848;2023-07-13T07:32:07;98798.94;;;20.84;50.88
47785;BME280;35233;55.686;37.848;2023-07-13T07:34:33;98800.38;;;20.88;51.13
47785;BME280;35233;55.686;37.848;2023-07-13T07:37:00;98797.31;;;20.93;50.32
47785;BME280;35233;55.686;37.848;2023-07-13T07:39:29;98802.16;;;20.99;50.32
47785;BME280;35233;55.686;37.848;2023-07-13T07:41:54;98805.81;;;20.98;50.70
47785;BME280;35233;55.686;37.848;2023-07-13T07:44:20;98787.28;;;20.95;50.38
47785;BME280;35233;55.686;37.848;2023-07-13T07:46:45;98795.09;;;20.98;50.77
47785;BME280;35233;55.686;37.848;2023-07-13T07:49:11;98800.19;;;21.01;50.39
47785;BME280;35233;55.686;37.848;2023-07-13T07:51:37;98803.94;;;21.10;50.19
47785;BME280;35233;55.686;37.848;2023-07-13T07:54:03;98813.94;;;21.08;50.20
47785;BME280;35233;55.686;37.848;2023-07-13T07:56:29;98801.41;;;20.97;50.40
47785;BME280;35233;55.686;37.848;2023-07-13T07:58:55;98808.88;;;20.93;50.75
47785;BME280;35233;55.686;37.848;2023-07-13T08:01:20;98804.56;;;20.81;51.08
47785;BME280;35233;55.686;37.848;2023-07-13T08:03:46;98815.22;;;20.71;50.92
47785;BME280;35233;55.686;37.848;2023-07-13T08:06:11;98822.16;;;20.74;51.23
47785;BME280;35233;55.686;37.848;2023-07-13T08:08:37;98820.59;;;20.71;50.92
47785;BME280;35233;55.686;37.848;2023-07-13T08:11:05;98819.88;;;20.69;51.45
47785;BME280;35233;55.686;37.848;2023-07-13T08:13:31;98820.22;;;20.65;51.53
47785;BME280;35233;55.686;37.848;2023-07-13T08:15:56;98829.28;;;20.64;51.24
47785;BME280;35233;55.686;37.848;2023-07-13T08:18:22;98820.50;;;20.62;51.43
47785;BME280;35233;55.686;37.848;2023-07-13T08:20:47;98828.69;;;20.60;51.67
47785;BME280;35233;55.686;37.848;2023-07-13T08:23:13;98812.94;;;20.55;51.75
47785;BME280;35233;55.686;37.848;2023-07-13T08:25:38;98819.91;;;20.58;51.87
47785;BME280;35233;55.686;37.848;2023-07-13T08:28:04;98818.53;;;20.64;51.48
47785;BME280;35233;55.686;37.848;2023-07-13T08:30:30;98810.22;;;20.67;51.31
47785;BME280;35233;55.686;37.848;2023-07-13T08:32:55;98825.88;;;20.83;51.17
47785;BME280;35233;55.686;37.848;2023-07-13T08:35:21;98816.09;;;20.93;50.76
47785;BME280;35233;55.686;37.848;2023-07-13T08:37:47;98801.25;;;20.89;50.95
47785;BME280;35233;55.686;37.848;2023-07-13T08:40:13;98813.16;;;20.96;50.99
47785;BME280;35233;55.686;37.848;2023-07-13T08:42:45;98819.94;;;21.00;50.73
47785;BME280;35233;55.686;37.848;2023-07-13T08:46:05;98805.47;;;20.91;50.63
47785;BME280;35233;55.686;37.848;2023-07-13T08:48:40;98813.47;;;20.82;51.49
47785;BME280;35233;55.686;37.848;2023-07-13T08:51:20;98826.88;;;20.82;51.38
47785;BME280;35233;55.686;37.848;2023-07-13T08:53:50;98825.03;;;20.82;51.69
47785;BME280;35233;55.686;37.848;2023-07-13T08:56:29;98823.22;;;20.83;51.32
47785;BME280;35233;55.686;37.848;2023-07-13T08:59:06;98826.00;;;20.92;50.90
47785;BME280;35233;55.686;37.848;2023-07-13T09:04:16;98819.19;;;21.09;50.56
47785;BME280;35233;55.686;37.848;2023-07-13T09:09:46;98817.88;;;21.24;50.54
47785;BME280;35233;55.686;37.848;2023-07-13T09:12:46;98827.38;;;21.29;50.37
47785;BME280;35233;55.686;37.848;2023-07-13T09:15:31;98827.34;;;21.40;49.66
47785;BME280;35233;55.686;37.848;2023-07-13T09:21:00;98826.84;;;21.35;50.32
47785;BME280;35233;55.686;37.848;2023-07-13T09:23:29;98826.25;;;21.31;50.29
47785;BME280;35233;55.686;37.848;2023-07-13T09:26:25;98839.84;;;21.30;49.97
47785;BME280;35233;55.686;37.848;2023-07-13T09:28:57;98839.56;;;21.33;50.19
47785;BME280;35233;55.686;37.848;2023-07-13T09:31:30;98846.72;;;21.43;50.21
47785;BME280;35233;55.686;37.848;2023-07-13T09:33:59;98848.19;;;21.47;50.18
47785;BME280;35233;55.686;37.848;2023-07-13T09:39:02;98846.06;;;21.30;50.19
47785;BME280;35233;55.686;37.848;2023-07-13T09:44:18;98856.72;;;21.20;50.69
47785;BME280;35233;55.686;37.848;2023-07-13T09:46:54;98849.91;;;21.16;50.77
47785;BME280;35233;55.686;37.848;2023-07-13T09:49:33;98854.13;;;21.09;50.91
47785;BME280;35233;55.686;37.848;2023-07-13T09:52:02;98853.06;;;21.00;51.31
47785;BME280;35233;55.686;37.848;2023-07-13T09:54:29;98852.84;;;20.92;51.08
47785;BME280;35233;55.686;37.848;2023-07-13T09:56:58;98846.53;;;20.82;51.78
47785;BME280;35233;55.686;37.848;2023-07-13T09:59:30;98844.81;;;20.81;51.78
47785;BME280;35233;55.686;37.848;2023-07-13T10:01:56;98838.13;;;20.75;51.54
47785;BME280;35233;55.686;37.848;2023-07-13T10:04:31;98844.94;;;20.79;51.77
47785;BME280;35233;55.686;37.848;2023-07-13T10:07:08;98852.28;;;20.77;52.00
47785;BME280;35233;55.686;37.848;2023-07-13T10:09:34;98834.97;;;20.70;51.67
47785;BME280;35233;55.686;37.848;2023-07-13T10:12:00;98844.59;;;20.73;51.91
47785;BME280;35233;55.686;37.848;2023-07-13T10:14:27;98838.91;;;20.66;51.71
47785;BME280;35233;55.686;37.848;2023-07-13T10:17:00;98851.34;;;20.67;52.09
47785;BME280;35233;55.686;37.848;2023-07-13T10:19:32;98851.47;;;20.66;52.05
47785;BME280;35233;55.686;37.848;2023-07-13T10:22:14;98842.22;;;20.58;52.05
47785;BME280;35233;55.686;37.848;2023-07-13T10:24:44;98842.34;;;20.57;51.97
47785;BME280;35233;55.686;37.848;2023-07-13T10:27:19;98844.53;;;20.52;52.23
47785;BME280;35233;55.686;37.848;2023-07-13T10:29:50;98846.72;;;20.47;52.15
47785;BME280;35233;55.686;37.848;2023-07-13T10:32:19;98848.81;;;20.43;52.31
47785;BME280;35233;55.686;37.848;2023-07-13T10:34:47;98859.53;;;20.43;52.79
47785;BME280;35233;55.686;37.848;2023-07-13T10:40:16;98860.78;;;20.39;52.64
47785;BME280;35233;55.686;37.848;2023-07-13T10:42:46;98861.16;;;20.34;52.90
47785;BME280;35233;55.686;37.848;2023-07-13T10:45:18;98859.69;;;20.30;52.90
47785;BME280;35233;55.686;37.848;2023-07-13T10:47:45;98866.50;;;20.34;52.70
47785;BME280;35233;55.686;37.848;2023-07-13T10:50:28;98868.34;;;20.34;52.97
47785;BME280;35233;55.686;37.848;2023-07-13T10:53:17;98865.66;;;20.34;52.59
47785;BME280;35233;55.686;37.848;2023-07-13T10:58:35;98866.88;;;20.30;53.06
47785;BME280;35233;55.686;37.848;2023-07-13T11:01:17;98864.81;;;20.22;52.93
47785;BME280;35233;55.686;37.848;2023-07-13T11:08:54;98869.69;;;20.17;53.19
47785;BME280;35233;55.686;37.848;2023-07-13T11:14:02;98871.03;;;20.11;53.50
47785;BME280;35233;55.686;37.848;2023-07-13T11:21:27;98876.75;;;20.07;53.33
47785;BME280;35233;55.686;37.848;2023-07-13T11:24:12;98869.09;;;20.02;53.33
47785;BME280;35233;55.686;37.848;2023-07-13T11:32:00;98874.56;;;20.01;53.37
47785;BME280;35233;55.686;37.848;2023-07-13T11:34:36;98868.38;;;20.00;53.44
47785;BME280;35233;55.686;37.848;2023-07-13T11:37:03;98875.22;;;20.04;53.43
47785;BME280;35233;55.686;37.848;2023-07-13T11:39:32;98863.25;;;19.97;53.70
47785;BME280;35233;55.686;37.848;2023-07-13T11:42:05;98867.75;;;19.97;53.62
47785;BME280;35233;55.686;37.848;2023-07-13T11:44:33;98864.09;;;19.98;53.52
47785;BME280;35233;55.686;37.848;2023-07-13T11:47:08;98859.81;;;19.95;53.53
47785;BME280;35233;55.686;37.848;2023-07-13T11:49:40;98859.81;;;19.95;53.78
47785;BME280;35233;55.686;37.848;2023-07-13T11:52:11;98843.13;;;19.92;53.82
47785;BME280;35233;55.686;37.848;2023-07-13T11:54:55;98859.97;;;19.94;53.45
47785;BME280;35233;55.686;37.848;2023-07-13T11:57:25;98857.53;;;19.90;53.33
47785;BME280;35233;55.686;37.848;2023-07-13T11:59:53;98855.34;;;19.84;53.93
47785;BME280;35233;55.686;37.848;2023-07-13T12:02:34;98858.63;;;19.88;53.89
47785;BME280;35233;55.686;37.848;2023-07-13T12:05:02;98866.66;;;19.88;53.72
47785;BME280;35233;55.686;37.848;2023-07-13T12:07:31;98857.78;;;19.87;54.00
47785;BME280;35233;55.686;37.848;2023-07-13T12:10:17;98865.06;;;19.85;53.86
47785;BME280;35233;55.686;37.848;2023-07-13T12:13:09;98853.38;;;19.86;53.82
47785;BME280;35233;55.686;37.848;2023-07-13T12:15:43;98863.84;;;19.89;53.62
47785;BME280;35233;55.686;37.848;2023-07-13T12:18:17;98856.78;;;19.88;53.63
47785;BME280;35233;55.686;37.848;2023-07-13T12:20:44;98867.41;;;19.90;53.53
47785;BME280;35233;55.686;37.848;2023-07-13T12:23:33;98861.91;;;19.92;53.73
47785;BME280;35233;55.686;37.848;2023-07-13T12:26:04;98863.00;;;19.89;53.66
47785;BME280;35233;55.686;37.848;2023-07-13T12:28:36;98869.84;;;19.93;53.48
47785;BME280;35233;55.686;37.848;2023-07-13T12:31:07;98859.22;;;19.92;53.65
47785;BME280;35233;55.686;37.848;2023-07-13T12:33:46;98841.56;;;19.89;53.55
47785;BME280;35233;55.686;37.848;2023-07-13T12:36:12;98851.56;;;19.87;53.54
47785;BME280;35233;55.686;37.848;2023-07-13T12:38:38;98855.09;;;19.87;53.68
47785;BME280;35233;55.686;37.848;2023-07-13T12:41:03;98850.31;;;19.80;53.96
47785;BME280;35233;55.686;37.848;2023-07-13T12:43:32;98849.25;;;19.82;53.86
47785;BME280;35233;55.686;37.848;2023-07-13T12:48:29;98850.94;;;19.83;53.88
47785;BME280;35233;55.686;37.848;2023-07-13T12:50:55;98853.84;;;19.80;54.04
47785;BME280;35233;55.686;37.848;2023-07-13T12:53:23;98848.16;;;19.85;53.70
47785;BME280;35233;55.686;37.848;2023-07-13T12:55:56;98853.75;;;19.82;53.73
47785;BME280;35233;55.686;37.848;2023-07-13T12:58:31;98837.66;;;19.71;53.94
47785;BME280;35233;55.686;37.848;2023-07-13T13:00:59;98849.84;;;19.75;53.95
47785;BME280;35233;55.686;37.848;2023-07-13T13:03:50;98860.44;;;19.76;53.86
47785;BME280;35233;55.686;37.848;2023-07-13T13:08:46;98836.69;;;19.72;54.18
47785;BME280;35233;55.686;37.848;2023-07-13T13:11:11;98838.16;;;19.76;54.12
47785;BME280;35233;55.686;37.848;2023-07-13T13:13:37;98835.34;;;19.77;54.23
47785;BME280;35233;55.686;37.848;2023-07-13T13:18:35;98848.13;;;19.74;54.06
47785;BME280;35233;55.686;37.848;2023-07-13T13:21:01;98837.28;;;19.64;53.95
47785;BME280;35233;55.686;37.848;2023-07-13T13:23:27;98843.47;;;19.64;53.98
47785;BME280;35233;55.686;37.848;2023-07-13T13:25:53;98841.28;;;19.58;54.37
47785;BME280;35233;55.686;37.848;2023-07-13T13:28:20;98854.53;;;19.60;54.56
47785;BME280;35233;55.686;37.848;2023-07-13T13:30:47;98855.63;;;19.57;54.35
47785;BME280;35233;55.686;37.848;2023-07-13T13:33:17;98844.81;;;19.59;54.49
47785;BME280;35233;55.686;37.848;2023-07-13T13:35:43;98844.06;;;19.57;54.25
47785;BME280;35233;55.686;37.848;2023-07-13T13:38:16;98849.94;;;19.62;54.35
47785;BME280;35233;55.686;37.848;2023-07-13T13:40:43;98832.25;;;19.59;54.28
47785;BME280;35233;55.686;37.848;2023-07-13T13:43:21;98829.09;;;19.54;54.42